Terminal Aerodrome Forecast
Issued by NWS

Current Version | Previous Version | Text Only | Print | Product List | Glossary On
Versions: 1 2 3 4 5 6 7 8 9 10 11 12 13 14
000
FTUS41 KLWX 191700 RRA
TAFMTN
TAF
KMTN 191743Z 1918/2018 14006KT P6SM BKN250
     FM192100 02006KT P6SM BKN250
     FM201100 06010KT P6SM FEW250=

USA.gov is the U.S. government's official web portal to all federal, state and local government web resources and services.